createdAt,value
2023-06-08T00:01:36.605Z,3.88
2023-06-08T00:04:06.800Z,3.45
2023-06-08T00:06:35.568Z,3.42
2023-06-08T00:09:02.686Z,3.72
2023-06-08T00:11:29.818Z,3.17
2023-06-08T00:13:56.822Z,3.55
2023-06-08T00:16:23.860Z,2.92
2023-06-08T00:18:51.805Z,3.35
2023-06-08T00:21:18.802Z,3.60
2023-06-08T00:23:47.555Z,3.97
2023-06-08T00:26:14.484Z,3.55
2023-06-08T00:28:41.690Z,3.63
2023-06-08T00:31:08.789Z,3.95
2023-06-08T00:33:35.987Z,3.30
2023-06-08T00:36:05.669Z,2.83
2023-06-08T00:38:35.382Z,3.78
2023-06-08T00:41:06.748Z,3.78
2023-06-08T00:43:34.493Z,4.00
2023-06-08T00:46:03.418Z,3.83
2023-06-08T00:48:31.181Z,3.90
2023-06-08T00:50:59.828Z,4.13
2023-06-08T00:53:27.107Z,3.75
2023-06-08T00:55:54.700Z,3.00
2023-06-08T00:58:24.268Z,3.40
2023-06-08T01:00:51.629Z,3.58
2023-06-08T01:03:20.928Z,3.60
2023-06-08T01:05:48.030Z,3.50
2023-06-08T01:08:20.660Z,3.42
2023-06-08T01:10:51.686Z,4.13
2023-06-08T01:13:26.396Z,3.53
2023-06-08T01:15:56.716Z,3.50
2023-06-08T01:18:25.055Z,3.40
2023-06-08T01:21:08.468Z,3.08
2023-06-08T01:23:46.980Z,3.80
2023-06-08T01:26:17.320Z,3.55
2023-06-08T01:28:48.870Z,3.63
2023-06-08T01:31:15.885Z,3.05
2023-06-08T01:33:43.322Z,3.70
2023-06-08T01:36:16.439Z,4.18
2023-06-08T01:38:49.908Z,3.25
2023-06-08T01:41:22.421Z,3.58
2023-06-08T01:43:51.354Z,3.90
2023-06-08T01:46:20.082Z,3.63
2023-06-08T01:48:48.546Z,3.90
2023-06-08T01:51:17.307Z,4.20
2023-06-08T01:53:44.891Z,3.22
2023-06-08T01:56:12.742Z,3.97
2023-06-08T01:58:41.125Z,3.42
2023-06-08T02:01:08.217Z,4.40
2023-06-08T02:03:35.284Z,3.53
2023-06-08T02:06:02.331Z,3.15
2023-06-08T02:08:32.713Z,4.05
2023-06-08T02:10:59.668Z,3.67
2023-06-08T02:13:26.802Z,4.20
2023-06-08T02:15:55.890Z,3.78
2023-06-08T02:18:22.870Z,3.72
2023-06-08T02:20:50.860Z,4.22
2023-06-08T02:23:17.821Z,3.90
2023-06-08T02:25:44.861Z,4.25
2023-06-08T02:28:11.883Z,4.13
2023-06-08T02:30:38.801Z,4.03
2023-06-08T02:33:07.815Z,4.38
2023-06-08T02:35:34.943Z,3.95
2023-06-08T02:38:01.874Z,3.80
2023-06-08T02:40:29.678Z,3.38
2023-06-08T02:42:57.754Z,4.65
2023-06-08T02:45:26.355Z,4.15
2023-06-08T02:47:56.079Z,4.53
2023-06-08T02:50:24.640Z,3.40
2023-06-08T02:52:51.671Z,4.55
2023-06-08T02:55:18.718Z,3.97
2023-06-08T02:57:50.207Z,4.30
2023-06-08T03:00:18.516Z,4.65
2023-06-08T03:02:55.741Z,3.95
2023-06-08T03:05:25.388Z,4.50
2023-06-08T03:07:54.238Z,3.35
2023-06-08T03:10:21.624Z,3.92
2023-06-08T03:12:48.660Z,4.30
2023-06-08T03:15:24.224Z,3.20
2023-06-08T03:17:58.407Z,4.15
2023-06-08T03:20:27.134Z,4.22
2023-06-08T03:23:10.383Z,3.85
2023-06-08T03:25:40.135Z,4.03
2023-06-08T03:28:07.348Z,4.32
2023-06-08T03:30:34.347Z,3.67
2023-06-08T03:33:07.044Z,4.18
2023-06-08T03:35:46.984Z,4.72
2023-06-08T03:38:22.780Z,4.00
2023-06-08T03:40:51.693Z,4.15
2023-06-08T03:43:20.819Z,3.65
2023-06-08T03:45:49.017Z,4.25
2023-06-08T03:48:16.676Z,4.43
2023-06-08T03:50:46.344Z,3.85
2023-06-08T03:53:15.924Z,4.32
2023-06-08T03:55:42.931Z,3.17
2023-06-08T03:58:10.172Z,4.30
2023-06-08T04:00:37.260Z,3.55
2023-06-08T04:03:04.674Z,4.13
2023-06-08T04:05:32.072Z,4.93
2023-06-08T04:08:02.413Z,4.45
2023-06-08T04:10:32.132Z,3.80
2023-06-08T04:12:59.877Z,5.20
2023-06-08T04:15:27.044Z,3.83
2023-06-08T04:17:56.572Z,3.90
2023-06-08T04:20:24.541Z,3.58
2023-06-08T04:22:52.080Z,3.70
2023-06-08T04:25:26.197Z,3.95
2023-06-08T04:27:56.271Z,4.45
2023-06-08T04:30:23.596Z,4.50
2023-06-08T04:32:51.089Z,3.72
2023-06-08T04:35:19.148Z,4.18
2023-06-08T04:37:50.832Z,4.32
2023-06-08T04:40:18.220Z,3.65
2023-06-08T04:42:45.663Z,3.72
2023-06-08T04:45:14.262Z,4.18
2023-06-08T04:47:45.035Z,3.72
2023-06-08T04:50:12.624Z,4.13
2023-06-08T04:52:42.396Z,4.10
2023-06-08T04:55:14.237Z,4.78
2023-06-08T04:57:41.935Z,4.15
2023-06-08T05:00:10.936Z,4.45
2023-06-08T05:02:40.053Z,3.80
2023-06-08T05:05:08.567Z,4.25
2023-06-08T05:07:35.587Z,3.92
2023-06-08T05:10:03.430Z,4.53
2023-06-08T05:12:30.562Z,3.40
2023-06-08T05:14:57.653Z,3.90
2023-06-08T05:17:24.741Z,3.08
2023-06-08T05:19:53.170Z,3.67
2023-06-08T05:22:20.213Z,3.67
2023-06-08T05:24:47.836Z,3.38
2023-06-08T05:27:16.136Z,3.38
2023-06-08T05:29:43.108Z,3.35
2023-06-08T05:32:11.383Z,3.80
2023-06-08T05:34:38.379Z,3.88
2023-06-08T05:37:06.892Z,3.05
2023-06-08T05:39:33.853Z,2.78
2023-06-08T05:42:00.951Z,3.10
2023-06-08T05:44:29.012Z,3.10
2023-06-08T05:49:22.668Z,3.10
2023-06-08T05:51:49.665Z,3.15
2023-06-08T05:54:18.099Z,3.22
2023-06-08T05:56:45.157Z,3.47
2023-06-08T05:59:12.181Z,3.42
2023-06-08T06:01:39.183Z,3.25
2023-06-08T06:04:07.813Z,2.42
2023-06-08T06:06:40.472Z,3.67
2023-06-08T06:09:07.538Z,3.15
2023-06-08T06:11:36.079Z,2.90
2023-06-08T06:14:03.167Z,2.97
2023-06-08T06:16:30.515Z,3.20
2023-06-08T06:18:58.783Z,3.60
2023-06-08T06:21:25.740Z,3.15
2023-06-08T06:23:52.680Z,3.70
2023-06-08T06:26:19.642Z,4.32
2023-06-08T06:28:48.075Z,3.95
2023-06-08T06:31:15.021Z,4.05
2023-06-08T06:33:42.023Z,3.40
2023-06-08T06:36:08.983Z,4.13
2023-06-08T06:38:35.923Z,2.92
2023-06-08T06:41:04.627Z,3.58
2023-06-08T06:46:05.644Z,3.05
2023-06-08T06:48:32.656Z,3.58
2023-06-08T06:50:59.667Z,3.17
2023-06-08T06:53:26.623Z,3.05
2023-06-08T06:55:53.543Z,3.45
2023-06-08T06:58:21.326Z,3.97
2023-06-08T07:00:48.360Z,3.13
2023-06-08T07:03:17.829Z,2.90
2023-06-08T07:05:46.302Z,3.42
2023-06-08T07:08:13.422Z,3.10
2023-06-08T07:10:40.493Z,3.38
2023-06-08T07:13:07.558Z,2.92
2023-06-08T07:15:34.980Z,3.47
2023-06-08T07:18:02.026Z,2.95
2023-06-08T07:20:31.495Z,2.47
2023-06-08T07:23:03.823Z,3.03
2023-06-08T07:28:32.966Z,2.78
2023-06-08T07:30:59.956Z,3.10
2023-06-08T07:33:27.418Z,2.92
2023-06-08T07:35:56.003Z,3.28
2023-06-08T07:38:22.925Z,3.75
2023-06-08T07:40:50.098Z,2.58
2023-06-08T07:43:17.153Z,3.50
2023-06-08T07:45:44.165Z,3.50
2023-06-08T07:48:11.133Z,3.40
2023-06-08T07:50:39.085Z,3.13
2023-06-08T07:53:08.282Z,3.20
2023-06-08T07:55:35.235Z,2.95
2023-06-08T07:58:02.666Z,3.50
2023-06-08T08:00:32.495Z,3.10
2023-06-08T08:02:59.834Z,3.33
2023-06-08T08:05:26.957Z,3.53
2023-06-08T08:07:53.852Z,2.97
2023-06-08T08:10:23.764Z,2.90
2023-06-08T08:12:52.619Z,3.47
2023-06-08T08:15:19.649Z,3.15
2023-06-08T08:17:46.658Z,2.78
2023-06-08T08:20:14.427Z,2.58
2023-06-08T08:25:09.355Z,3.42
2023-06-08T08:27:38.019Z,2.90
2023-06-08T08:30:06.321Z,2.88
2023-06-08T08:32:33.633Z,4.13
2023-06-08T08:35:00.768Z,2.88
2023-06-08T08:37:27.758Z,3.20
2023-06-08T08:39:54.790Z,2.92
2023-06-08T08:42:24.307Z,2.95
2023-06-08T08:44:55.129Z,2.55
2023-06-08T08:47:24.254Z,3.35
2023-06-08T08:49:56.743Z,3.40
2023-06-08T08:52:24.372Z,2.97
2023-06-08T08:54:56.749Z,2.95
2023-06-08T08:57:23.806Z,3.00
2023-06-08T08:59:50.842Z,3.20
2023-06-08T09:02:19.413Z,2.78
2023-06-08T09:04:46.590Z,3.00
2023-06-08T09:07:19.153Z,2.78
2023-06-08T09:10:13.660Z,2.88
2023-06-08T09:12:40.984Z,4.00
2023-06-08T09:15:09.706Z,2.55
2023-06-08T09:17:41.630Z,2.85
2023-06-08T09:20:10.061Z,2.80
2023-06-08T09:22:37.912Z,2.90
2023-06-08T09:25:05.848Z,2.60
2023-06-08T09:27:33.521Z,2.20
2023-06-08T09:30:03.287Z,3.03
2023-06-08T09:32:34.289Z,2.50
2023-06-08T09:35:04.378Z,2.42
2023-06-08T09:37:34.200Z,2.92
2023-06-08T09:40:02.462Z,2.97
2023-06-08T09:42:42.967Z,2.55
2023-06-08T09:45:11.994Z,2.30
2023-06-08T09:47:39.014Z,2.97
2023-06-08T09:50:09.801Z,2.70
2023-06-08T09:52:37.675Z,2.70
2023-06-08T09:55:06.227Z,3.38
2023-06-08T09:57:35.069Z,2.58
2023-06-08T10:00:15.816Z,2.65
2023-06-08T10:02:49.396Z,3.15
2023-06-08T10:05:19.180Z,2.72
2023-06-08T10:07:48.704Z,2.92
2023-06-08T10:10:19.356Z,2.60
2023-06-08T10:12:46.581Z,2.17
2023-06-08T10:15:13.683Z,2.67
2023-06-08T10:17:40.739Z,2.67
2023-06-08T10:20:08.932Z,2.67
2023-06-08T10:22:39.003Z,2.67
2023-06-08T10:25:09.481Z,2.15
2023-06-08T10:27:37.455Z,3.15
2023-06-08T10:30:06.985Z,2.47
2023-06-08T10:32:35.981Z,2.38
2023-06-08T10:35:06.101Z,2.22
2023-06-08T10:37:37.648Z,2.20
2023-06-08T10:40:09.469Z,2.20
2023-06-08T10:42:36.536Z,2.80
2023-06-08T10:45:05.648Z,2.53
2023-06-08T10:47:38.369Z,2.47
2023-06-08T10:50:07.678Z,2.42
2023-06-08T10:52:45.609Z,2.95
2023-06-08T10:55:14.493Z,2.42
2023-06-08T10:57:43.998Z,2.38
2023-06-08T11:00:44.785Z,2.58
2023-06-08T11:03:13.720Z,2.30
2023-06-08T11:05:42.767Z,2.53
2023-06-08T11:08:11.611Z,2.55
2023-06-08T11:10:42.931Z,2.05
2023-06-08T11:13:10.881Z,2.55
2023-06-08T11:15:39.039Z,3.05
2023-06-08T11:18:08.569Z,2.50
2023-06-08T11:20:38.293Z,2.28
2023-06-08T11:23:07.666Z,2.10
2023-06-08T11:25:36.370Z,2.17
2023-06-08T11:28:04.030Z,2.28
2023-06-08T11:30:41.112Z,2.42
2023-06-08T11:33:09.137Z,1.90
2023-06-08T11:35:36.550Z,2.53
2023-06-08T11:38:04.229Z,2.00
2023-06-08T11:40:32.007Z,1.60
2023-06-08T11:43:02.079Z,2.03
2023-06-08T11:45:29.571Z,1.98
2023-06-08T11:48:14.706Z,1.92
2023-06-08T11:50:48.809Z,1.90
2023-06-08T11:55:47.409Z,1.60
2023-06-08T11:58:16.041Z,1.95
2023-06-08T12:00:43.375Z,1.85
2023-06-08T12:03:11.202Z,1.95
2023-06-08T12:05:38.720Z,1.42
2023-06-08T12:08:12.640Z,1.60
2023-06-08T12:10:41.252Z,1.60
2023-06-08T12:13:09.634Z,1.50
2023-06-08T12:15:39.234Z,1.70
2023-06-08T12:18:10.843Z,1.73
2023-06-08T12:20:38.175Z,1.60
2023-06-08T12:23:05.880Z,1.90
2023-06-08T12:25:33.036Z,1.60
2023-06-08T12:30:27.559Z,1.70
2023-06-08T12:32:59.579Z,1.60
2023-06-08T12:35:26.636Z,1.63
2023-06-08T12:37:53.706Z,1.80
2023-06-08T12:40:21.032Z,1.60
2023-06-08T12:42:51.151Z,1.80
2023-06-08T12:45:19.238Z,1.60
2023-06-08T12:47:46.543Z,2.08
2023-06-08T12:50:18.216Z,2.30
2023-06-08T12:52:46.077Z,1.90
2023-06-08T12:55:13.116Z,1.80
2023-06-08T12:57:40.228Z,1.80
2023-06-08T13:00:09.368Z,1.90
2023-06-08T13:02:36.634Z,2.20
2023-06-08T13:07:32.653Z,2.35
2023-06-08T13:10:00.061Z,2.03
2023-06-08T13:12:29.422Z,2.50
2023-06-08T13:14:56.450Z,3.00
2023-06-08T13:17:25.401Z,2.63
2023-06-08T13:19:53.993Z,2.08
2023-06-08T13:22:22.525Z,1.98
2023-06-08T13:24:51.034Z,2.13
2023-06-08T13:27:18.101Z,2.85
2023-06-08T13:29:52.077Z,2.72
2023-06-08T13:32:21.751Z,2.08
2023-06-08T13:34:50.442Z,2.00
2023-06-08T13:37:17.427Z,2.20
2023-06-08T13:39:44.481Z,1.83
2023-06-08T13:42:12.975Z,2.28
2023-06-08T13:44:42.105Z,2.60
2023-06-08T13:47:09.125Z,2.30
2023-06-08T13:49:36.142Z,2.40
2023-06-08T13:52:03.175Z,2.53
2023-06-08T13:54:30.103Z,2.50
2023-06-08T13:56:57.085Z,2.10
2023-06-08T13:59:25.641Z,2.45
2023-06-08T14:01:54.495Z,2.40
2023-06-08T14:04:21.656Z,2.30
2023-06-08T14:06:48.877Z,2.80
2023-06-08T14:09:15.934Z,2.35
2023-06-08T14:11:43.059Z,2.38
2023-06-08T14:14:10.020Z,2.72
2023-06-08T14:16:38.461Z,2.35
2023-06-08T14:19:05.619Z,2.90
2023-06-08T14:21:32.529Z,2.90
2023-06-08T14:24:01.797Z,2.70
2023-06-08T14:26:29.083Z,2.80
2023-06-08T14:28:56.515Z,2.92
2023-06-08T14:31:23.598Z,2.20
2023-06-08T14:33:52.295Z,2.47
2023-06-08T14:36:19.169Z,3.00
2023-06-08T14:38:47.109Z,3.25
2023-06-08T14:41:14.554Z,3.83
2023-06-08T14:43:41.647Z,4.40
2023-06-08T14:46:12.258Z,3.33
2023-06-08T14:48:39.311Z,3.30
2023-06-08T14:51:07.695Z,3.13
2023-06-08T14:53:34.679Z,3.22
2023-06-08T14:56:01.685Z,4.20
2023-06-08T14:58:28.695Z,3.35
2023-06-08T15:01:01.180Z,4.13
2023-06-08T15:03:28.301Z,3.80
2023-06-08T15:05:55.266Z,4.90
2023-06-08T15:08:25.904Z,4.90
2023-06-08T15:10:52.921Z,4.25
2023-06-08T15:13:19.886Z,4.82
2023-06-08T15:15:47.801Z,4.68
2023-06-08T15:18:14.814Z,4.20
2023-06-08T15:20:41.880Z,3.80
2023-06-08T15:23:10.436Z,4.82
2023-06-08T15:25:39.018Z,3.45
2023-06-08T15:28:08.694Z,4.65
2023-06-08T15:30:35.714Z,4.28
2023-06-08T15:33:02.968Z,4.22
2023-06-08T15:35:30.023Z,4.60
2023-06-08T15:37:57.058Z,4.07
2023-06-08T15:40:24.033Z,4.28
2023-06-08T15:42:52.332Z,4.28
2023-06-08T15:45:19.287Z,4.50
2023-06-08T15:47:47.916Z,4.40
2023-06-08T15:50:16.311Z,4.68
2023-06-08T15:52:43.196Z,4.43
2023-06-08T15:55:10.315Z,4.72
2023-06-08T15:57:37.226Z,4.43
2023-06-08T16:00:09.034Z,4.25
2023-06-08T16:02:39.144Z,4.85
2023-06-08T16:05:07.433Z,4.68
2023-06-08T16:07:34.409Z,4.57
2023-06-08T16:10:03.300Z,3.53
2023-06-08T16:12:30.533Z,3.97
2023-06-08T16:14:58.210Z,4.22
2023-06-08T16:17:26.616Z,4.55
2023-06-08T16:19:53.634Z,5.20
2023-06-08T16:22:20.592Z,4.60
2023-06-08T16:24:47.570Z,4.53
2023-06-08T16:27:16.258Z,5.10
2023-06-08T16:29:44.838Z,4.63
2023-06-08T16:32:14.150Z,4.40
2023-06-08T16:34:42.746Z,5.18
2023-06-08T16:37:09.754Z,4.00
2023-06-08T16:39:37.007Z,4.78
2023-06-08T16:42:04.500Z,5.38
2023-06-08T16:44:31.822Z,5.57
2023-06-08T16:46:59.011Z,5.18
2023-06-08T16:49:26.081Z,4.47
2023-06-08T16:51:54.837Z,3.85
2023-06-08T16:54:22.053Z,4.93
2023-06-08T16:56:49.029Z,4.22
2023-06-08T16:59:16.060Z,4.28
2023-06-08T17:01:43.270Z,4.10
2023-06-08T17:04:10.571Z,4.50
2023-06-08T17:06:38.115Z,4.25
2023-06-08T17:09:06.594Z,4.60
2023-06-08T17:11:33.576Z,4.43
2023-06-08T17:14:00.737Z,4.25
2023-06-08T17:16:28.204Z,5.40
2023-06-08T17:18:55.649Z,4.65
2023-06-08T17:21:22.600Z,4.47
2023-06-08T17:23:49.783Z,4.53
2023-06-08T17:26:18.244Z,4.72
2023-06-08T17:28:48.507Z,4.28
2023-06-08T17:31:15.892Z,4.53
2023-06-08T17:33:43.000Z,4.32
2023-06-08T17:36:11.710Z,4.50
2023-06-08T17:38:38.808Z,5.15
2023-06-08T17:41:05.961Z,4.70
2023-06-08T17:43:46.966Z,5.00
2023-06-08T17:46:14.537Z,4.25
2023-06-08T17:48:41.589Z,5.38
2023-06-08T17:51:09.100Z,5.05
2023-06-08T17:53:36.266Z,5.07
2023-06-08T17:56:03.440Z,4.93
2023-06-08T17:58:30.437Z,5.13
2023-06-08T18:01:00.612Z,5.43
2023-06-08T18:03:27.840Z,5.00
2023-06-08T18:05:55.055Z,5.30
2023-06-08T18:08:22.048Z,4.72
2023-06-08T18:10:48.996Z,5.05
2023-06-08T18:13:16.977Z,5.10
2023-06-08T18:18:13.329Z,4.60
2023-06-08T18:20:40.413Z,4.93
2023-06-08T18:23:07.502Z,5.18
2023-06-08T18:25:34.465Z,5.32
2023-06-08T18:28:01.739Z,6.47
2023-06-08T18:30:29.786Z,4.63
2023-06-08T18:32:56.931Z,5.60
2023-06-08T18:35:25.363Z,5.05
2023-06-08T18:37:54.137Z,4.50
2023-06-08T18:40:21.483Z,5.75
2023-06-08T18:42:48.462Z,5.60
2023-06-08T18:45:16.024Z,5.65
2023-06-08T18:47:42.978Z,5.75
2023-06-08T18:50:13.824Z,5.60
2023-06-08T18:52:42.636Z,5.20
2023-06-08T18:55:10.444Z,5.43
2023-06-08T19:00:06.617Z,4.30
2023-06-08T19:02:34.194Z,5.63
2023-06-08T19:05:05.637Z,5.32
2023-06-08T19:07:33.563Z,5.28
2023-06-08T19:10:05.162Z,5.45
2023-06-08T19:12:32.778Z,5.32
2023-06-08T19:14:59.742Z,4.65
2023-06-08T19:17:26.700Z,5.22
2023-06-08T19:19:53.736Z,4.72
2023-06-08T19:22:22.798Z,4.85
2023-06-08T19:24:49.796Z,6.13
2023-06-08T19:27:18.312Z,5.20
2023-06-08T19:29:45.390Z,4.13
2023-06-08T19:32:12.480Z,5.07
2023-06-08T19:34:39.688Z,5.25
2023-06-08T19:37:07.099Z,5.45
2023-06-08T19:39:34.067Z,5.70
2023-06-08T19:42:03.953Z,4.20
2023-06-08T19:44:32.708Z,5.35
2023-06-08T19:47:02.997Z,4.22
2023-06-08T19:49:32.034Z,4.60
2023-06-08T19:51:59.327Z,5.70
2023-06-08T19:54:26.548Z,5.32
2023-06-08T19:56:53.749Z,4.78
2023-06-08T19:59:20.813Z,5.18
2023-06-08T20:01:50.674Z,5.60
2023-06-08T20:04:17.843Z,5.07
2023-06-08T20:06:49.774Z,5.20
2023-06-08T20:09:26.090Z,4.93
2023-06-08T20:11:54.632Z,6.38
2023-06-08T20:14:21.591Z,5.95
2023-06-08T20:16:52.906Z,5.32
2023-06-08T20:19:25.467Z,5.18
2023-06-08T20:21:55.305Z,5.40
2023-06-08T20:24:22.571Z,5.22
2023-06-08T20:26:49.613Z,5.38
2023-06-08T20:29:16.669Z,5.75
2023-06-08T20:31:43.899Z,5.18
2023-06-08T20:34:12.555Z,5.95
2023-06-08T20:36:39.616Z,5.35
2023-06-08T20:39:09.348Z,4.80
2023-06-08T20:41:36.891Z,5.72
2023-06-08T20:44:05.824Z,5.30
2023-06-08T20:46:34.423Z,5.80
2023-06-08T20:49:03.967Z,5.40
2023-06-08T20:51:32.689Z,5.43
2023-06-08T20:53:59.676Z,4.10
2023-06-08T20:56:27.278Z,5.78
2023-06-08T20:58:54.566Z,4.72
2023-06-08T21:01:21.860Z,5.28
2023-06-08T21:03:49.589Z,4.85
2023-06-08T21:06:17.252Z,4.78
2023-06-08T21:08:45.741Z,5.05
2023-06-08T21:11:12.866Z,5.10
2023-06-08T21:13:39.782Z,5.40
2023-06-08T21:16:06.857Z,4.85
2023-06-08T21:18:35.139Z,4.63
2023-06-08T21:21:02.115Z,4.93
2023-06-08T21:23:31.581Z,5.82
2023-06-08T21:26:00.116Z,5.30
2023-06-08T21:28:27.174Z,4.47
2023-06-08T21:30:54.664Z,4.60
2023-06-08T21:33:21.747Z,4.82
2023-06-08T21:36:01.843Z,3.70
2023-06-08T21:38:36.165Z,3.47
2023-06-08T21:41:04.543Z,4.10
2023-06-08T21:43:31.605Z,3.90
2023-06-08T21:45:58.652Z,3.22
2023-06-08T21:48:25.851Z,3.30
2023-06-08T21:50:52.984Z,3.00
2023-06-08T21:53:20.063Z,3.08
2023-06-08T21:55:47.082Z,3.08
2023-06-08T21:58:15.695Z,3.15
2023-06-08T22:00:42.871Z,3.05
2023-06-08T22:03:11.684Z,3.20
2023-06-08T22:05:38.686Z,3.20
2023-06-08T22:08:05.640Z,3.05
2023-06-08T22:10:32.729Z,3.67
2023-06-08T22:12:59.912Z,3.38
2023-06-08T22:15:28.301Z,3.22
2023-06-08T22:17:55.964Z,3.30
2023-06-08T22:20:23.791Z,3.30
2023-06-08T22:22:50.868Z,3.67
2023-06-08T22:25:17.979Z,3.45
2023-06-08T22:27:46.240Z,4.38
2023-06-08T22:30:14.369Z,3.15
2023-06-08T22:32:42.923Z,3.25
2023-06-08T22:35:10.426Z,3.88
2023-06-08T22:37:37.558Z,3.50
2023-06-08T22:40:06.041Z,4.55
2023-06-08T22:42:33.126Z,4.10
2023-06-08T22:45:00.222Z,3.90
2023-06-08T22:47:31.496Z,3.88
2023-06-08T22:50:01.431Z,4.35
2023-06-08T22:52:32.726Z,3.80
2023-06-08T22:55:00.461Z,4.45
2023-06-08T22:57:27.427Z,4.45
2023-06-08T22:59:54.409Z,4.93
2023-06-08T23:02:21.653Z,4.88
2023-06-08T23:04:48.991Z,4.70
2023-06-08T23:07:17.926Z,4.68
2023-06-08T23:09:49.661Z,4.22
2023-06-08T23:12:18.670Z,4.25
2023-06-08T23:14:51.687Z,5.00
2023-06-08T23:17:19.347Z,4.32
2023-06-08T23:19:49.566Z,4.72
2023-06-08T23:22:21.262Z,4.93
2023-06-08T23:24:48.859Z,4.53
2023-06-08T23:27:16.248Z,4.00
2023-06-08T23:29:49.699Z,4.90
2023-06-08T23:32:17.247Z,4.30
2023-06-08T23:34:44.436Z,4.25
2023-06-08T23:37:11.888Z,5.13
2023-06-08T23:39:40.245Z,4.80
2023-06-08T23:42:09.355Z,4.40
2023-06-08T23:44:36.368Z,4.38
2023-06-08T23:47:04.131Z,4.28
2023-06-08T23:49:31.152Z,4.93
2023-06-08T23:51:58.217Z,4.35
2023-06-08T23:54:25.183Z,4.15
2023-06-08T23:56:53.597Z,4.20
2023-06-08T23:59:20.556Z,4.57
